Wheelwright, Kentucky
Current Conditions -  °F | °C
As of 8:35 PM on Wednesday 22 Oct 2014 (Local Time) from KPBX Reporting Station
Overcast Overcast  
Wind Chill: 44°   Ceiling: 2900
Heat Index: 46°   Visibility: 10mi
Dew Point: 42°   Wind: 5mph
Humidity: 86%   Direction: 320°NW
Pressure: 30.23"   Gusts: NA
Location:  37.33°N, 82.72°W
Report Text: KPBX 230035Z AUTO 32004KT 10SM OVC029 08/06 A3023 RMK AO2 T00800058
Loading
Personal Weather Stations






























Interactive Weather Map
Tropical Storm Tracking
New forecast layout! Learn more

10-Day Weather Forecast

Advertisements
Track Severe Weather on mobile